createdAt,value
2018-05-05T00:00:48.351Z,0
2018-05-05T00:01:58.087Z,0
2018-05-05T00:03:07.298Z,0
2018-05-05T00:04:17.302Z,0
2018-05-05T00:05:27.308Z,0
2018-05-05T00:06:37.313Z,0
2018-05-05T00:07:46.788Z,0
2018-05-05T00:08:56.253Z,0
2018-05-05T00:10:05.524Z,0
2018-05-05T00:11:15.536Z,0
2018-05-05T00:12:25.272Z,0
2018-05-05T00:13:34.749Z,0
2018-05-05T00:14:44.497Z,0
2018-05-05T00:15:53.970Z,0
2018-05-05T00:17:03.987Z,0
2018-05-05T00:18:13.990Z,0
2018-05-05T00:19:24.012Z,0
2018-05-05T00:20:33.751Z,0
2018-05-05T00:21:43.760Z,0
2018-05-05T00:22:53.766Z,0
2018-05-05T00:24:03.774Z,0
2018-05-05T00:25:13.512Z,0
2018-05-05T00:26:23.520Z,0
2018-05-05T00:27:33.269Z,0
2018-05-05T00:28:43.276Z,0
2018-05-05T00:29:53.009Z,0
2018-05-05T00:31:03.019Z,0
2018-05-05T00:32:11.953Z,0
2018-05-05T00:33:21.961Z,0
2018-05-05T00:34:31.430Z,0
2018-05-05T00:35:40.899Z,0
2018-05-05T00:36:50.925Z,0
2018-05-05T00:38:00.398Z,0
2018-05-05T00:39:10.138Z,0
2018-05-05T00:40:20.137Z,0
2018-05-05T00:41:30.151Z,0
2018-05-05T00:42:40.152Z,0
2018-05-05T00:43:49.889Z,0
2018-05-05T00:44:59.899Z,0
2018-05-05T00:46:09.905Z,0
2018-05-05T00:47:19.647Z,0
2018-05-05T00:48:29.654Z,0
2018-05-05T00:49:39.659Z,0
2018-05-05T00:50:49.131Z,0
2018-05-05T00:51:58.890Z,0
2018-05-05T00:53:08.628Z,0
2018-05-05T00:54:18.097Z,0
2018-05-05T00:55:28.102Z,0
2018-05-05T00:56:37.848Z,0
2018-05-05T00:57:47.855Z,0
2018-05-05T00:58:57.661Z,0
2018-05-05T01:00:07.701Z,0
2018-05-05T01:01:17.433Z,0
2018-05-05T01:02:27.450Z,0
2018-05-05T01:03:37.529Z,0
2018-05-05T01:04:47.540Z,0
2018-05-05T01:05:57.557Z,0
2018-05-05T01:07:06.762Z,0
2018-05-05T01:08:16.790Z,0
2018-05-05T01:09:26.535Z,0
2018-05-05T01:10:36.537Z,0
2018-05-05T01:11:46.013Z,0
2018-05-05T01:12:56.025Z,0
2018-05-05T01:14:06.033Z,0
2018-05-05T01:15:15.778Z,0
2018-05-05T01:16:25.515Z,0
2018-05-05T01:17:35.590Z,0
2018-05-05T01:18:45.064Z,0
2018-05-05T01:19:55.070Z,0
2018-05-05T01:21:04.549Z,0
2018-05-05T01:22:14.024Z,0
2018-05-05T01:23:23.846Z,0
2018-05-05T01:24:33.326Z,0
2018-05-05T01:25:43.093Z,0
2018-05-05T01:26:53.098Z,0
2018-05-05T01:28:02.573Z,0
2018-05-05T01:29:12.047Z,0
2018-05-05T01:30:22.048Z,0
2018-05-05T01:31:31.795Z,0
2018-05-05T01:32:41.807Z,0
2018-05-05T01:33:51.547Z,0
2018-05-05T01:35:01.287Z,0
2018-05-05T01:36:11.040Z,0
2018-05-05T01:37:20.777Z,0
2018-05-05T01:38:30.252Z,0
2018-05-05T01:39:40.045Z,0
2018-05-05T01:40:50.048Z,0
2018-05-05T01:41:59.837Z,0
2018-05-05T01:43:09.307Z,0
2018-05-05T01:44:19.316Z,0
2018-05-05T01:45:29.376Z,0
2018-05-05T01:46:39.392Z,0
2018-05-05T01:47:49.399Z,0
2018-05-05T01:48:59.414Z,0
2018-05-05T01:50:09.432Z,0
2018-05-05T01:51:19.167Z,0
2018-05-05T01:52:28.904Z,0
2018-05-05T01:53:38.910Z,0
2018-05-05T01:54:48.964Z,0
2018-05-05T01:55:58.976Z,0
2018-05-05T01:57:08.596Z,0
2018-05-05T01:58:18.653Z,0
2018-05-05T01:59:28.399Z,0
2018-05-05T02:00:37.871Z,0
2018-05-05T02:01:47.877Z,0
2018-05-05T02:02:57.620Z,0
2018-05-05T02:04:07.636Z,0
2018-05-05T02:05:17.386Z,0
2018-05-05T02:06:27.395Z,0
2018-05-05T02:07:37.403Z,0
2018-05-05T02:08:47.405Z,0
2018-05-05T02:09:56.884Z,0
2018-05-05T02:11:06.889Z,0
2018-05-05T02:12:16.364Z,0
2018-05-05T02:13:26.379Z,0
2018-05-05T02:14:36.124Z,0
2018-05-05T02:15:46.138Z,0
2018-05-05T02:16:56.141Z,0
2018-05-05T02:18:05.879Z,0
2018-05-05T02:19:15.882Z,0
2018-05-05T02:20:25.884Z,0
2018-05-05T02:21:35.365Z,0
2018-05-05T02:22:45.395Z,0
2018-05-05T02:23:55.135Z,0
2018-05-05T02:25:04.872Z,0
2018-05-05T02:26:14.623Z,0
2018-05-05T02:27:24.372Z,0
2018-05-05T02:28:34.382Z,0
2018-05-05T02:29:44.393Z,0
2018-05-05T02:30:54.168Z,0
2018-05-05T02:32:03.981Z,0
2018-05-05T02:33:13.735Z,0
2018-05-05T02:34:23.753Z,0
2018-05-05T02:35:33.494Z,0
2018-05-05T02:36:42.998Z,0
2018-05-05T02:37:52.841Z,0
2018-05-05T02:39:02.583Z,0
2018-05-05T02:40:11.802Z,0
2018-05-05T02:41:21.537Z,0
2018-05-05T02:42:31.549Z,0
2018-05-05T02:43:41.031Z,0
2018-05-05T02:44:50.770Z,0
2018-05-05T02:46:00.781Z,0
2018-05-05T02:47:10.818Z,0
2018-05-05T02:48:20.560Z,0
2018-05-05T02:49:30.029Z,0
2018-05-05T02:50:40.045Z,0
2018-05-05T02:51:49.526Z,0
2018-05-05T02:52:59.266Z,0
2018-05-05T02:54:09.279Z,0
2018-05-05T02:55:19.294Z,0
2018-05-05T02:56:29.038Z,0
2018-05-05T02:57:39.057Z,5
2018-05-05T02:58:49.068Z,5
2018-05-05T02:59:59.084Z,5
2018-05-05T03:03:41.423Z,5
2018-05-05T03:04:51.275Z,5
2018-05-05T03:06:01.024Z,5
2018-05-05T03:07:10.765Z,5
2018-05-05T03:08:20.594Z,5
2018-05-05T03:09:30.678Z,5
2018-05-05T03:10:40.150Z,10
2018-05-05T03:11:50.173Z,10
2018-05-05T03:12:59.938Z,10
2018-05-05T03:14:09.686Z,10
2018-05-05T03:15:19.698Z,10
2018-05-05T03:16:29.714Z,10
2018-05-05T03:17:39.192Z,10
2018-05-05T03:18:49.214Z,10
2018-05-05T03:19:59.287Z,10
2018-05-05T03:21:09.023Z,15
2018-05-05T03:22:18.766Z,15
2018-05-05T03:23:28.775Z,15
2018-05-05T03:24:38.516Z,15
2018-05-05T03:25:48.250Z,15
2018-05-05T03:26:58.666Z,20
2018-05-05T03:28:08.230Z,20
2018-05-05T03:29:18.236Z,20
2018-05-05T03:30:27.982Z,20
2018-05-05T03:31:37.727Z,25
2018-05-05T03:32:47.195Z,25
2018-05-05T03:33:56.750Z,25
2018-05-05T03:35:06.489Z,30
2018-05-05T03:36:15.699Z,30
2018-05-05T03:37:25.465Z,30
2018-05-05T03:38:35.472Z,30
2018-05-05T03:39:45.213Z,35
2018-05-05T03:40:55.224Z,35
2018-05-05T03:42:04.425Z,40
2018-05-05T03:43:14.429Z,40
2018-05-05T03:44:23.905Z,40
2018-05-05T03:45:33.916Z,45
2018-05-05T03:46:43.936Z,45
2018-05-05T03:47:53.957Z,50
2018-05-05T03:49:03.437Z,50
2018-05-05T03:50:13.175Z,55
2018-05-05T03:51:23.185Z,55
2018-05-05T03:52:32.665Z,60
2018-05-05T03:53:42.681Z,60
2018-05-05T03:54:52.423Z,60
2018-05-05T03:56:02.434Z,60
2018-05-05T03:57:11.637Z,60
2018-05-05T03:58:21.374Z,60
2018-05-05T03:59:31.112Z,60
2018-05-05T04:00:41.125Z,65
2018-05-05T04:01:51.187Z,65
2018-05-05T04:03:00.392Z,70
2018-05-05T04:04:10.408Z,70
2018-05-05T04:05:20.147Z,75
2018-05-05T04:06:29.891Z,75
2018-05-05T04:07:39.915Z,80
2018-05-05T04:08:49.662Z,80
2018-05-05T04:09:59.638Z,80
2018-05-05T04:11:09.375Z,85
2018-05-05T04:12:19.123Z,90
2018-05-05T04:13:29.132Z,90
2018-05-05T04:14:38.066Z,90
2018-05-05T04:15:47.814Z,100
2018-05-05T04:16:57.564Z,95
2018-05-05T04:18:07.569Z,95
2018-05-05T04:19:17.310Z,95
2018-05-05T04:20:27.324Z,95
2018-05-05T04:21:37.063Z,95
2018-05-05T04:22:46.533Z,95
2018-05-05T04:23:56.271Z,95
2018-05-05T04:25:05.752Z,100
2018-05-05T04:26:15.754Z,100
2018-05-05T04:27:25.770Z,100
2018-05-05T04:28:35.783Z,100
2018-05-05T04:29:45.785Z,105
2018-05-05T04:30:55.812Z,105
2018-05-05T04:32:05.555Z,110
2018-05-05T04:33:15.303Z,110
2018-05-05T04:34:24.777Z,110
2018-05-05T04:35:34.515Z,115
2018-05-05T04:36:44.530Z,115
2018-05-05T04:37:54.544Z,120
2018-05-05T04:39:04.013Z,120
2018-05-05T04:40:14.021Z,125
2018-05-05T04:41:24.032Z,125
2018-05-05T04:42:33.502Z,125
2018-05-05T04:43:43.507Z,135
2018-05-05T04:44:53.246Z,135
2018-05-05T04:46:02.990Z,135
2018-05-05T04:47:12.726Z,135
2018-05-05T04:48:22.469Z,135
2018-05-05T04:49:32.205Z,135
2018-05-05T04:50:42.216Z,140
2018-05-05T04:51:51.795Z,140
2018-05-05T04:53:01.866Z,140
2018-05-05T04:54:10.533Z,135
2018-05-05T04:55:20.540Z,140
2018-05-05T04:56:30.276Z,140
2018-05-05T04:57:40.015Z,140
2018-05-05T04:58:49.777Z,140
2018-05-05T04:59:59.782Z,145
2018-05-05T05:01:09.784Z,145
2018-05-05T05:02:19.266Z,150
2018-05-05T05:03:29.285Z,150
2018-05-05T05:04:39.295Z,155
2018-05-05T05:05:49.299Z,160
2018-05-05T05:06:59.304Z,160
2018-05-05T05:08:08.786Z,160
2018-05-05T05:09:18.533Z,160
2018-05-05T05:10:28.539Z,165
2018-05-05T05:11:38.558Z,165
2018-05-05T05:12:47.766Z,165
2018-05-05T05:13:57.506Z,165
2018-05-05T05:15:07.511Z,155
2018-05-05T05:16:17.532Z,160
2018-05-05T05:17:27.648Z,155
2018-05-05T05:18:37.394Z,155
2018-05-05T05:19:47.401Z,155
2018-05-05T05:20:56.878Z,155
2018-05-05T05:22:06.351Z,145
2018-05-05T05:23:16.367Z,150
2018-05-05T05:24:26.107Z,150
2018-05-05T05:25:35.047Z,150
2018-05-05T05:26:45.054Z,150
2018-05-05T05:27:55.080Z,145
2018-05-05T05:29:04.286Z,145
2018-05-05T05:30:14.031Z,145
2018-05-05T05:31:24.035Z,145
2018-05-05T05:32:34.047Z,150
2018-05-05T05:33:43.788Z,155
2018-05-05T05:34:53.797Z,160
2018-05-05T05:36:03.537Z,165
2018-05-05T05:37:13.544Z,170
2018-05-05T05:38:23.023Z,170
2018-05-05T05:39:33.109Z,180
2018-05-05T05:40:42.480Z,185
2018-05-05T05:41:52.488Z,195
2018-05-05T05:43:02.506Z,195
2018-05-05T05:44:12.244Z,195
2018-05-05T05:45:22.066Z,195
2018-05-05T05:46:32.429Z,195
2018-05-05T05:47:42.471Z,195
2018-05-05T05:48:52.490Z,190
2018-05-05T05:50:02.499Z,195
2018-05-05T05:51:12.240Z,200
2018-05-05T05:52:22.398Z,210
2018-05-05T05:53:31.873Z,210
2018-05-05T05:54:41.612Z,210
2018-05-05T05:55:51.834Z,210
2018-05-05T05:57:01.573Z,210
2018-05-05T05:58:11.374Z,210
2018-05-05T05:59:21.378Z,210
2018-05-05T06:00:31.119Z,210
2018-05-05T06:01:41.131Z,210
2018-05-05T06:02:50.607Z,210
2018-05-05T06:04:00.619Z,210
2018-05-05T06:05:10.375Z,210
2018-05-05T06:06:20.380Z,205
2018-05-05T06:07:30.384Z,200
2018-05-05T06:08:40.395Z,195
2018-05-05T06:09:50.499Z,190
2018-05-05T06:11:00.516Z,185
2018-05-05T06:12:09.994Z,190
2018-05-05T06:13:20.005Z,185
2018-05-05T06:14:29.743Z,180
2018-05-05T06:15:39.536Z,180
2018-05-05T06:16:49.548Z,190
2018-05-05T06:17:59.029Z,190
2018-05-05T06:19:08.768Z,185
2018-05-05T06:20:18.515Z,180
2018-05-05T06:21:28.522Z,170
2018-05-05T06:22:38.534Z,170
2018-05-05T06:23:48.596Z,175
2018-05-05T06:24:58.614Z,180
2018-05-05T06:26:08.625Z,180
2018-05-05T06:27:18.844Z,190
2018-05-05T06:28:28.881Z,200
2018-05-05T06:29:38.899Z,210
2018-05-05T06:30:48.758Z,210
2018-05-05T06:31:58.517Z,210
2018-05-05T06:33:07.988Z,205
2018-05-05T06:34:17.732Z,200
2018-05-05T06:35:27.738Z,195
2018-05-05T06:36:37.491Z,195
2018-05-05T06:37:47.500Z,180
2018-05-05T06:38:57.046Z,165
2018-05-05T06:40:07.059Z,150
2018-05-05T06:41:16.804Z,140
2018-05-05T06:42:26.816Z,135
2018-05-05T06:43:36.694Z,135
2018-05-05T06:44:46.712Z,140
2018-05-05T06:45:56.721Z,140
2018-05-05T06:47:06.202Z,140
2018-05-05T06:48:15.948Z,140
2018-05-05T06:49:25.960Z,140
2018-05-05T06:50:35.711Z,145
2018-05-05T06:51:45.721Z,155
2018-05-05T06:52:55.462Z,165
2018-05-05T06:54:04.936Z,185
2018-05-05T06:55:14.417Z,205
2018-05-05T06:56:24.425Z,215
2018-05-05T06:57:34.444Z,230
2018-05-05T06:58:44.455Z,235
2018-05-05T06:59:54.200Z,220
2018-05-05T07:01:04.212Z,210
2018-05-05T07:02:14.230Z,200
2018-05-05T07:03:24.237Z,200
2018-05-05T07:04:34.252Z,185
2018-05-05T07:05:43.993Z,170
2018-05-05T07:06:53.756Z,165
2018-05-05T07:08:03.774Z,165
2018-05-05T07:09:13.836Z,165
2018-05-05T07:10:23.873Z,160
2018-05-05T07:11:33.882Z,160
2018-05-05T07:12:43.090Z,165
2018-05-05T07:13:52.831Z,170
2018-05-05T07:15:02.570Z,165
2018-05-05T07:16:11.779Z,160
2018-05-05T07:17:21.575Z,160
2018-05-05T07:18:31.339Z,155
2018-05-05T07:19:41.101Z,175
2018-05-05T07:20:50.571Z,170
2018-05-05T07:21:59.778Z,165
2018-05-05T07:23:09.794Z,180
2018-05-05T07:24:19.528Z,190
2018-05-05T07:25:29.542Z,190
2018-05-05T07:26:39.570Z,190
2018-05-05T07:27:49.578Z,195
2018-05-05T07:28:59.590Z,190
2018-05-05T07:30:09.615Z,190
2018-05-05T07:31:19.625Z,190
2018-05-05T07:32:29.727Z,190
2018-05-05T07:33:39.550Z,190
2018-05-05T07:34:49.559Z,190
2018-05-05T07:35:59.575Z,190
2018-05-05T07:37:09.046Z,190
2018-05-05T07:38:18.793Z,190
2018-05-05T07:39:28.274Z,185
2018-05-05T07:40:38.018Z,190
2018-05-05T07:41:48.031Z,170
2018-05-05T07:42:57.784Z,160
2018-05-05T07:44:07.270Z,160
2018-05-05T07:45:17.303Z,190
2018-05-05T07:46:27.318Z,195
2018-05-05T07:47:37.336Z,195
2018-05-05T07:48:47.350Z,195
2018-05-05T07:49:57.355Z,195
2018-05-05T07:51:06.835Z,195
2018-05-05T07:52:16.847Z,190
2018-05-05T07:53:26.321Z,190
2018-05-05T07:54:35.795Z,195
2018-05-05T07:55:45.805Z,195
2018-05-05T07:56:55.816Z,195
2018-05-05T07:58:05.554Z,195
2018-05-05T07:59:15.547Z,195
2018-05-05T08:00:25.278Z,195
2018-05-05T08:01:35.282Z,195
2018-05-05T08:02:45.027Z,195
2018-05-05T08:03:54.770Z,195
2018-05-05T08:05:03.979Z,195
2018-05-05T08:06:13.505Z,195
2018-05-05T08:07:22.977Z,195
2018-05-05T08:08:32.720Z,195
2018-05-05T08:09:42.733Z,195
2018-05-05T08:10:52.210Z,200
2018-05-05T08:12:02.225Z,195
2018-05-05T08:13:12.247Z,195
2018-05-05T08:14:21.986Z,195
2018-05-05T08:15:31.997Z,195
2018-05-05T08:16:41.513Z,195
2018-05-05T08:17:51.525Z,195
2018-05-05T08:19:00.996Z,195
2018-05-05T08:20:10.476Z,195
2018-05-05T08:21:20.489Z,195
2018-05-05T08:22:30.227Z,200
2018-05-05T08:23:39.703Z,200
2018-05-05T08:24:49.182Z,200
2018-05-05T08:25:59.200Z,200
2018-05-05T08:27:08.944Z,200
2018-05-05T08:28:18.963Z,200
2018-05-05T08:29:28.714Z,200
2018-05-05T08:30:38.191Z,200
2018-05-05T08:31:48.197Z,200
2018-05-05T08:32:58.209Z,200
2018-05-05T08:34:07.690Z,200
2018-05-05T08:35:16.907Z,200
2018-05-05T08:36:26.660Z,200
2018-05-05T08:37:36.675Z,200
2018-05-05T08:38:46.495Z,200
2018-05-05T08:39:56.512Z,205
2018-05-05T08:41:05.991Z,205
2018-05-05T08:42:15.733Z,205
2018-05-05T08:43:25.615Z,205
2018-05-05T08:44:35.711Z,205
2018-05-05T08:45:45.721Z,210
2018-05-05T08:46:55.481Z,205
2018-05-05T08:48:04.955Z,205
2018-05-05T08:49:14.961Z,210
2018-05-05T08:50:24.701Z,205
2018-05-05T08:51:34.451Z,205
2018-05-05T08:52:44.286Z,205
2018-05-05T08:53:54.295Z,210
2018-05-05T08:55:04.038Z,210
2018-05-05T08:56:13.517Z,210
2018-05-05T08:57:23.265Z,210
2018-05-05T08:58:33.014Z,210
2018-05-05T08:59:42.491Z,210
2018-05-05T09:00:52.228Z,210
2018-05-05T09:02:02.249Z,215
2018-05-05T09:03:12.550Z,210
2018-05-05T09:04:22.316Z,210
2018-05-05T09:05:32.325Z,210
2018-05-05T09:06:41.805Z,215
2018-05-05T09:07:51.009Z,215
2018-05-05T09:09:00.486Z,215
2018-05-05T09:10:10.605Z,215
2018-05-05T09:11:20.611Z,215
2018-05-05T09:12:30.623Z,215
2018-05-05T09:13:39.830Z,215
2018-05-05T09:14:49.576Z,215
2018-05-05T09:15:59.583Z,215
2018-05-05T09:17:09.594Z,215
2018-05-05T09:18:19.347Z,215
2018-05-05T09:19:29.091Z,220
2018-05-05T09:20:38.829Z,220
2018-05-05T09:21:48.839Z,225
2018-05-05T09:22:58.851Z,220
2018-05-05T09:24:08.591Z,225
2018-05-05T09:25:18.606Z,220
2018-05-05T09:26:28.354Z,220
2018-05-05T09:27:38.102Z,220
2018-05-05T09:28:48.114Z,220
2018-05-05T09:29:58.127Z,225
2018-05-05T09:31:08.145Z,225
2018-05-05T09:32:17.886Z,225
2018-05-05T09:33:27.752Z,225
2018-05-05T09:34:37.497Z,225
2018-05-05T09:35:47.262Z,225
2018-05-05T09:36:57.006Z,225
2018-05-05T09:38:06.479Z,225
2018-05-05T09:39:16.493Z,230
2018-05-05T09:40:25.990Z,230
2018-05-05T09:41:35.732Z,230
2018-05-05T09:42:45.968Z,230
2018-05-05T09:43:56.058Z,230
2018-05-05T09:45:05.802Z,235
2018-05-05T09:46:15.548Z,235
2018-05-05T09:47:25.557Z,235
2018-05-05T09:48:35.037Z,235
2018-05-05T09:49:44.782Z,240
2018-05-05T09:50:54.788Z,240
2018-05-05T09:52:04.807Z,245
2018-05-05T09:53:14.570Z,245
2018-05-05T09:54:24.322Z,245
2018-05-05T09:55:34.333Z,245
2018-05-05T09:56:44.398Z,245
2018-05-05T09:57:54.141Z,250
2018-05-05T09:59:03.889Z,255
2018-05-05T10:00:13.636Z,260
2018-05-05T10:01:23.646Z,270
2018-05-05T10:02:33.393Z,280
2018-05-05T10:03:43.428Z,290
2018-05-05T10:04:53.172Z,300
2018-05-05T10:06:02.940Z,315
2018-05-05T10:07:12.420Z,335
2018-05-05T10:08:22.157Z,360
2018-05-05T10:09:32.183Z,385
2018-05-05T10:10:42.208Z,400
2018-05-05T10:11:51.946Z,400
2018-05-05T10:13:01.690Z,380
2018-05-05T10:14:10.906Z,370
2018-05-05T10:15:20.661Z,395
2018-05-05T10:16:30.676Z,405
2018-05-05T10:17:40.692Z,395
2018-05-05T10:18:50.174Z,400
2018-05-05T10:19:59.962Z,390
2018-05-05T10:21:09.711Z,355
2018-05-05T10:22:19.461Z,315
2018-05-05T10:23:29.219Z,330
2018-05-05T10:24:39.230Z,360
2018-05-05T10:25:53.548Z,325
2018-05-05T10:27:03.305Z,335
2018-05-05T10:28:13.051Z,350
2018-05-05T10:29:22.537Z,355
2018-05-05T10:30:32.281Z,375
2018-05-05T10:31:42.416Z,380
2018-05-05T10:32:52.526Z,385
2018-05-05T10:34:02.275Z,415
2018-05-05T10:35:11.226Z,430
2018-05-05T10:36:21.244Z,450
2018-05-05T10:37:31.308Z,460
2018-05-05T10:38:41.050Z,475
2018-05-05T10:39:51.062Z,480
2018-05-05T10:41:00.828Z,495
2018-05-05T10:42:10.847Z,525
2018-05-05T10:43:20.934Z,545
2018-05-05T10:44:31.021Z,560
2018-05-05T10:45:40.519Z,560
2018-05-05T10:46:50.275Z,560
2018-05-05T10:47:59.750Z,565
2018-05-05T10:49:09.226Z,565
2018-05-05T10:50:19.246Z,565
2018-05-05T10:51:29.389Z,565
2018-05-05T10:52:39.407Z,550
2018-05-05T10:53:49.149Z,550
2018-05-05T10:54:59.169Z,550
2018-05-05T10:56:08.919Z,540
2018-05-05T10:57:18.676Z,535
2018-05-05T10:58:28.421Z,540
2018-05-05T10:59:37.916Z,530
2018-05-05T11:00:47.397Z,530
2018-05-05T11:01:57.141Z,525
2018-05-05T11:03:06.896Z,500
2018-05-05T11:04:16.372Z,490
2018-05-05T11:05:25.584Z,455
2018-05-05T11:06:35.340Z,445
2018-05-05T11:07:45.355Z,420
2018-05-05T11:08:55.118Z,420
2018-05-05T11:10:05.128Z,425
2018-05-05T11:11:14.882Z,425
2018-05-05T11:12:24.971Z,420
2018-05-05T11:13:34.188Z,420
2018-05-05T11:14:44.203Z,405
2018-05-05T11:15:54.218Z,375
2018-05-05T11:17:04.243Z,375
2018-05-05T11:18:14.254Z,375
2018-05-05T11:19:24.272Z,370
2018-05-05T11:20:34.286Z,395
2018-05-05T11:21:44.299Z,435
2018-05-05T11:22:54.313Z,1195
2018-05-05T11:24:04.435Z,2430
2018-05-05T11:25:14.456Z,1170
2018-05-05T11:26:24.488Z,1765
2018-05-05T11:27:33.974Z,1825
2018-05-05T11:28:43.724Z,2270
2018-05-05T11:29:54.072Z,2305
2018-05-05T11:31:03.209Z,2325
2018-05-05T11:32:13.267Z,2305
2018-05-05T11:33:23.296Z,2370
2018-05-05T11:34:33.053Z,2415
2018-05-05T11:35:43.088Z,2275
2018-05-05T11:36:53.279Z,2095
2018-05-05T11:38:02.865Z,2330
2018-05-05T11:39:12.890Z,2560
2018-05-05T11:40:22.379Z,2415
2018-05-05T11:41:32.401Z,2420
2018-05-05T11:42:42.162Z,2545
2018-05-05T11:43:51.656Z,2440
2018-05-05T11:45:01.963Z,2380
2018-05-05T11:46:12.004Z,2500
2018-05-05T11:47:22.330Z,2620
2018-05-05T11:48:32.351Z,2545
2018-05-05T11:49:41.843Z,2610
2018-05-05T11:50:52.425Z,2465
2018-05-05T11:52:01.928Z,2180
2018-05-05T11:53:11.686Z,2370
2018-05-05T11:54:21.458Z,2505
2018-05-05T11:55:31.486Z,2575
2018-05-05T11:56:40.989Z,2405
2018-05-05T11:57:50.484Z,2400
2018-05-05T11:58:59.985Z,2220
2018-05-05T12:00:10.018Z,2220
2018-05-05T12:01:20.109Z,2505
2018-05-05T12:02:29.974Z,2435
2018-05-05T12:03:40.006Z,2580
2018-05-05T12:04:49.771Z,2740
2018-05-05T12:05:59.539Z,2745
2018-05-05T12:07:09.584Z,2735
2018-05-05T12:08:19.346Z,2470
2018-05-05T12:09:29.113Z,2425
2018-05-05T12:10:38.770Z,2615
2018-05-05T12:11:48.811Z,2455
2018-05-05T12:12:58.842Z,2560
2018-05-05T12:14:08.338Z,2860
2018-05-05T12:15:18.368Z,2905
2018-05-05T12:16:28.450Z,2725
2018-05-05T12:17:38.212Z,2550
2018-05-05T12:18:48.247Z,2960
2018-05-05T12:19:58.022Z,2955
2018-05-05T12:21:07.820Z,2925
2018-05-05T12:22:17.468Z,3005
2018-05-05T12:23:26.966Z,2750
2018-05-05T12:24:36.746Z,2740
2018-05-05T12:25:46.771Z,2765
2018-05-05T12:26:56.539Z,2775
2018-05-05T12:28:06.589Z,2880
2018-05-05T12:29:16.350Z,2565
2018-05-05T12:30:26.393Z,2400
2018-05-05T12:31:36.431Z,2545
2018-05-05T12:32:46.201Z,2530
2018-05-05T12:33:56.255Z,2495
2018-05-05T12:35:05.751Z,2635
2018-05-05T12:36:15.780Z,2595
2018-05-05T12:37:25.821Z,2500
2018-05-05T12:38:35.856Z,2400
2018-05-05T12:39:45.888Z,2160
2018-05-05T12:40:55.652Z,2165
2018-05-05T12:42:05.415Z,2150
2018-05-05T12:43:15.180Z,1995
2018-05-05T12:44:24.944Z,1850
2018-05-05T12:45:34.719Z,1855
2018-05-05T12:46:44.750Z,1900
2018-05-05T12:47:54.536Z,1925
2018-05-05T12:49:04.575Z,2590
2018-05-05T12:50:14.440Z,3100
2018-05-05T12:51:24.205Z,2960
2018-05-05T12:52:34.240Z,2640
2018-05-05T12:53:44.006Z,2930
2018-05-05T12:54:53.505Z,3080
2018-05-05T12:56:03.267Z,2955
2018-05-05T12:57:13.300Z,3100
2018-05-05T12:58:23.068Z,3545
2018-05-05T12:59:32.562Z,3535
2018-05-05T13:00:42.662Z,3070
2018-05-05T13:01:52.696Z,2875
2018-05-05T13:03:02.729Z,2865
2018-05-05T13:04:12.500Z,2925
2018-05-05T13:05:22.276Z,3240
2018-05-05T13:06:32.055Z,3370
2018-05-05T13:07:42.086Z,3335
2018-05-05T13:08:51.855Z,3175
2018-05-05T13:10:01.890Z,3360
2018-05-05T13:11:11.655Z,3305
2018-05-05T13:12:21.681Z,3335
2018-05-05T13:13:31.722Z,3170
2018-05-05T13:14:41.749Z,3415
2018-05-05T13:15:51.773Z,3560
2018-05-05T13:17:01.808Z,3290
2018-05-05T13:18:11.856Z,3050
2018-05-05T13:19:21.896Z,3030
2018-05-05T13:20:31.661Z,3245
2018-05-05T13:21:41.688Z,3290
2018-05-05T13:22:51.726Z,3335
2018-05-05T13:24:01.722Z,3275
2018-05-05T13:25:11.755Z,3410
2018-05-05T13:26:21.521Z,3280
2018-05-05T13:27:31.623Z,3345
2018-05-05T13:28:41.649Z,3405
2018-05-05T13:29:51.677Z,3295
2018-05-05T13:31:01.719Z,3305
2018-05-05T13:32:11.493Z,3230
2018-05-05T13:33:21.547Z,3240
2018-05-05T13:34:31.305Z,3325
2018-05-05T13:35:41.069Z,3370
2018-05-05T13:36:51.439Z,3270
2018-05-05T13:38:01.473Z,3320
2018-05-05T13:39:11.253Z,3520
2018-05-05T13:40:21.280Z,3285
2018-05-05T13:41:31.312Z,3260
2018-05-05T13:42:41.339Z,3515
2018-05-05T13:43:51.364Z,3555
2018-05-05T13:45:01.125Z,3465
2018-05-05T13:46:10.688Z,3370
2018-05-05T13:47:20.470Z,3580
2018-05-05T13:48:30.517Z,3645
2018-05-05T13:49:40.642Z,1090
2018-05-05T13:50:50.420Z,1215
2018-05-05T13:52:00.457Z,1010
2018-05-05T13:53:09.949Z,1210
2018-05-05T13:54:19.983Z,770
2018-05-05T13:55:30.060Z,685
2018-05-05T13:56:39.837Z,610
2018-05-05T13:57:49.594Z,590
2018-05-05T13:58:59.351Z,2420
2018-05-05T14:00:08.576Z,1125
2018-05-05T14:01:18.344Z,725
2018-05-05T14:02:28.103Z,655
2018-05-05T14:03:37.865Z,670
2018-05-05T14:04:47.621Z,755
2018-05-05T14:05:57.650Z,770
2018-05-05T14:07:07.416Z,910
2018-05-05T14:08:17.438Z,735
2018-05-05T14:09:27.462Z,710
2018-05-05T14:10:37.487Z,665
2018-05-05T14:11:47.246Z,995
2018-05-05T14:12:57.006Z,3355
2018-05-05T14:14:06.764Z,3275
2018-05-05T14:15:16.797Z,2575
2018-05-05T14:16:26.816Z,3390
2018-05-05T14:17:36.854Z,1410
2018-05-05T14:18:46.971Z,985
2018-05-05T14:19:56.991Z,3225
2018-05-05T14:21:06.783Z,3175
2018-05-05T14:22:16.542Z,3250
2018-05-05T14:23:26.566Z,3145
2018-05-05T14:24:36.641Z,3005
2018-05-05T14:25:46.668Z,3175
2018-05-05T14:26:56.700Z,3260
2018-05-05T14:28:06.189Z,3320
2018-05-05T14:29:16.217Z,3185
2018-05-05T14:30:25.975Z,3450
2018-05-05T14:31:35.735Z,3460
2018-05-05T14:32:45.763Z,640
2018-05-05T14:33:55.535Z,610
2018-05-05T14:35:05.023Z,590
2018-05-05T14:36:14.779Z,590
2018-05-05T14:37:24.810Z,600
2018-05-05T14:38:34.845Z,590
2018-05-05T14:39:44.607Z,585
2018-05-05T14:40:54.631Z,690
2018-05-05T14:42:04.397Z,685
2018-05-05T14:43:14.228Z,3385
2018-05-05T14:44:24.263Z,985
2018-05-05T14:45:34.030Z,3105
2018-05-05T14:46:43.791Z,3335
2018-05-05T14:47:53.813Z,3275
2018-05-05T14:49:03.573Z,3195
2018-05-05T14:50:13.598Z,3085
2018-05-05T14:51:23.881Z,3050
2018-05-05T14:52:33.646Z,3045
2018-05-05T14:53:43.399Z,3000
2018-05-05T14:54:53.431Z,2845
2018-05-05T14:56:03.466Z,2745
2018-05-05T14:57:13.492Z,2735
2018-05-05T14:58:23.256Z,2850
2018-05-05T14:59:33.019Z,3005
2018-05-05T15:00:42.510Z,2920
2018-05-05T15:01:52.264Z,2845
2018-05-05T15:03:02.292Z,2990
2018-05-05T15:04:12.047Z,3015
2018-05-05T15:05:21.806Z,2925
2018-05-05T15:06:31.838Z,2930
2018-05-05T15:07:41.877Z,2905
2018-05-05T15:08:51.639Z,2865
2018-05-05T15:10:01.672Z,2840
2018-05-05T15:11:11.436Z,2770
2018-05-05T15:12:21.479Z,570
2018-05-05T15:13:31.525Z,445
2018-05-05T15:14:41.551Z,2780
2018-05-05T15:15:51.589Z,2595
2018-05-05T15:17:01.875Z,2600
2018-05-05T15:18:11.112Z,2735
2018-05-05T15:19:21.211Z,2785
2018-05-05T15:20:31.242Z,2770
2018-05-05T15:21:41.266Z,2625
2018-05-05T15:22:51.297Z,2355
2018-05-05T15:24:01.708Z,2230
2018-05-05T15:25:11.475Z,2065
2018-05-05T15:26:21.238Z,1845
2018-05-05T15:27:31.265Z,1780
2018-05-05T15:28:41.292Z,1920
2018-05-05T15:29:51.050Z,2095
2018-05-05T15:31:01.082Z,2430
2018-05-05T15:32:10.577Z,2490
2018-05-05T15:33:19.807Z,2465
2018-05-05T15:34:29.562Z,2525
2018-05-05T15:35:39.322Z,2520
2018-05-05T15:36:49.346Z,2345
2018-05-05T15:37:59.118Z,2360
2018-05-05T15:39:08.873Z,2350
2018-05-05T15:40:18.908Z,2140
2018-05-05T15:41:28.669Z,1535
2018-05-05T15:42:38.429Z,1215
2018-05-05T15:43:48.464Z,1275
2018-05-05T15:44:58.497Z,1275
2018-05-05T15:46:08.521Z,1240
2018-05-05T15:47:18.013Z,405
2018-05-05T15:48:28.039Z,1445
2018-05-05T15:49:37.799Z,1375
2018-05-05T15:50:47.837Z,1220
2018-05-05T15:51:57.860Z,1160
2018-05-05T15:53:07.627Z,1140
2018-05-05T15:54:17.392Z,965
2018-05-05T15:55:27.158Z,755
2018-05-05T15:56:37.180Z,800
2018-05-05T15:57:47.213Z,875
2018-05-05T15:58:57.235Z,1015
2018-05-05T16:00:07.259Z,1195
2018-05-05T16:01:17.360Z,925
2018-05-05T16:02:27.382Z,675
2018-05-05T16:03:37.509Z,820
2018-05-05T16:04:47.538Z,695
2018-05-05T16:05:57.567Z,510
2018-05-05T16:07:07.592Z,665
2018-05-05T16:08:17.622Z,560
2018-05-05T16:09:27.695Z,600
2018-05-05T16:10:37.447Z,535
2018-05-05T16:11:47.112Z,490